Current Weather

Abadan

Abadan, Iran (OIAA)

Report from: Tuesday, June 18, 2024 11:00 AM UTC
Current time: Tuesday, June 18, 2024 11:19 AM UTC

Nearby weather – Weather history – Daily summaries
Weather forecast

Temperature49.0°C (120.2°F)
Heat index46.0°C (114.8°F)
Dew point8.0°C (46.4°F)
Winds 4 kts (2.1 m/s, 4.6 mph) North-Northeast (30°)
Clouds Sky clear
Altimeter29.53 in.Hg (1000 mB)
Relative humidity9 %
Density altitude4,349 ft. (1,326 m)
Remarks Ceiling and visibility OK
Flight conditions Visual Meteorological Conditions
Raw dataOIAA 181100Z 03004KT CAVOK 49/08 Q1000
An error has occurred. This application may no longer respond until reloaded. Reload 🗙